Time;durP1;ratioP1;P1;durP2;ratioP2;P2;SDS_P1;SDS_P2;PMS_P1;PMS_P2;Temp;Humidity;BMP_temperature;BMP_pressure;BME280_temperature;BME280_humidity;BME280_pressure;Samples;Min_cycle;Max_cycle;Signal;HPM_P1;HPM_P2
2023/06/28 00:01:45;;;;;;;8.63;3.70;;;;;;;20.81;41.46;96339.97;5027059;28;20172;-69
2023/06/28 00:04:11;;;;;;;21.77;5.33;;;;;;;20.75;41.30;96345.84;5027830;28;20248;-68
2023/06/28 00:06:36;;;;;;;7.73;3.70;;;;;;;20.68;41.67;96345.50;5030543;28;20180;-69
2023/06/28 00:09:01;;;;;;;5.80;3.73;;;;;;;20.81;41.54;96349.78;5030099;28;20720;-69
2023/06/28 00:11:28;;;;;;;7.00;4.00;;;;;;;20.67;41.75;96338.50;5030169;28;20175;-69
2023/06/28 00:13:53;;;;;;;9.37;3.30;;;;;;;20.66;41.75;96334.13;5034776;28;20187;-69
2023/06/28 00:16:19;;;;;;;7.23;3.73;;;;;;;20.75;41.46;96335.16;5041827;28;21190;-69
2023/06/28 00:18:45;;;;;;;8.37;3.70;;;;;;;20.71;40.92;96331.91;5038069;28;20203;-69
2023/06/28 00:21:14;;;;;;;4.23;3.40;;;;;;;20.69;41.53;96341.88;5028962;28;20784;-69
2023/06/28 00:23:40;;;;;;;7.60;3.53;;;;;;;20.69;41.41;96341.88;5029928;28;20201;-69
2023/06/28 00:26:06;;;;;;;10.13;3.27;;;;;;;20.63;41.37;96342.41;5033830;28;20410;-68
2023/06/28 00:28:32;;;;;;;7.20;3.97;;;;;;;20.62;41.36;96350.50;5028615;28;21127;-69
2023/06/28 00:30:57;;;;;;;8.87;3.67;;;;;;;20.58;41.42;96349.09;5028782;28;20178;-69
2023/06/28 00:33:22;;;;;;;4.03;3.60;;;;;;;20.57;41.08;96348.22;5028371;28;20267;-70
2023/06/28 00:35:48;;;;;;;18.60;4.23;;;;;;;20.65;40.97;96344.94;5028662;28;20171;-69
2023/06/28 00:38:14;;;;;;;3.97;3.23;;;;;;;20.56;41.13;96346.56;5028633;28;20203;-69
2023/06/28 00:40:39;;;;;;;9.07;4.47;;;;;;;20.61;41.14;96349.66;5028778;28;20187;-69
2023/06/28 00:43:04;;;;;;;6.70;3.83;;;;;;;20.57;41.38;96353.56;5028986;28;20806;-69
2023/06/28 00:45:30;;;;;;;10.90;4.10;;;;;;;20.66;41.13;96354.63;5028845;28;20182;-69
2023/06/28 00:47:56;;;;;;;5.50;4.20;;;;;;;20.61;40.92;96364.84;5029129;28;20168;-69
2023/06/28 00:50:21;;;;;;;18.00;4.93;;;;;;;20.65;40.77;96348.44;5028696;28;20175;-69
2023/06/28 00:52:46;;;;;;;10.77;3.70;;;;;;;20.46;41.14;96351.78;5028610;28;20201;-69
2023/06/28 00:55:12;;;;;;;10.17;2.90;;;;;;;20.52;40.69;96361.09;5028087;28;20241;-69
2023/06/28 00:57:38;;;;;;;5.60;3.50;;;;;;;20.54;40.69;96368.97;5026954;28;20217;-69
2023/06/28 01:00:09;;;;;;;17.70;4.47;;;;;;;20.53;40.36;96370.78;5028191;28;20938;-69
2023/06/28 01:02:35;;;;;;;12.87;2.97;;;;;;;20.56;40.52;96375.03;5028169;28;20410;-69
2023/06/28 01:05:00;;;;;;;4.27;3.33;;;;;;;20.52;40.36;96372.59;5028020;28;20464;-69
2023/06/28 01:07:30;;;;;;;6.07;3.10;;;;;;;20.52;40.45;96379.75;5028042;28;20539;-69
2023/06/28 01:09:57;;;;;;;7.70;3.40;;;;;;;20.56;40.17;96375.03;5028191;28;20689;-69
2023/06/28 01:12:25;;;;;;;4.90;2.83;;;;;;;20.58;40.11;96375.75;5028168;28;20507;-70
2023/06/28 01:14:50;;;;;;;4.83;3.30;;;;;;;20.60;39.94;96384.44;5027646;28;20426;-69
2023/06/28 01:17:15;;;;;;;3.00;2.53;;;;;;;20.56;40.05;96383.03;5028218;28;20778;-70
2023/06/28 01:19:41;;;;;;;4.60;3.50;;;;;;;20.53;40.28;96381.44;5028522;28;20203;-70
2023/06/28 01:22:09;;;;;;;6.20;3.20;;;;;;;20.52;40.39;96385.91;5028313;28;20175;-70
2023/06/28 01:24:36;;;;;;;5.27;2.83;;;;;;;20.47;40.32;96393.47;5041861;28;20192;-69
2023/06/28 01:27:02;;;;;;;6.53;3.20;;;;;;;20.51;40.39;96397.56;5043022;28;20493;-70
2023/06/28 01:29:28;;;;;;;5.00;2.97;;;;;;;20.46;40.52;96398.94;5035902;28;20834;-68
2023/06/28 01:31:55;;;;;;;5.00;3.57;;;;;;;20.46;40.54;96405.09;5042448;28;20403;-69
2023/06/28 01:34:26;;;;;;;4.23;3.07;;;;;;;20.57;40.48;96414.88;5042245;28;20198;-70
2023/06/28 01:36:54;;;;;;;4.10;2.90;;;;;;;20.10;42.43;96422.31;5041505;28;20402;-68
2023/06/28 01:39:21;;;;;;;5.40;3.33;;;;;;;19.85;43.46;96426.97;5042512;28;20497;-68
2023/06/28 01:41:47;;;;;;;5.47;2.80;;;;;;;19.55;44.44;96429.41;5033539;28;20939;-69
2023/06/28 01:44:13;;;;;;;3.97;3.03;;;;;;;19.37;45.15;96431.69;5017929;28;20489;-69
2023/06/28 01:46:39;;;;;;;3.93;2.50;;;;;;;19.41;45.34;96435.81;5019129;28;20171;-69
2023/06/28 01:49:06;;;;;;;6.80;5.30;;;;;;;19.07;46.33;96435.78;5027318;28;20418;-68
2023/06/28 01:51:31;;;;;;;7.17;3.50;;;;;;;18.87;47.04;96433.81;5027196;28;20480;-69
2023/06/28 01:53:57;;;;;;;9.13;3.70;;;;;;;18.84;47.14;96434.91;5026794;28;20871;-70
2023/06/28 01:56:22;;;;;;;11.80;3.90;;;;;;;18.76;47.50;96438.16;5026843;28;20199;-70
2023/06/28 01:58:48;;;;;;;6.70;3.23;;;;;;;18.78;47.44;96438.88;5026887;28;20203;-70
2023/06/28 02:01:13;;;;;;;7.40;3.30;;;;;;;18.70;48.33;96438.56;5026921;28;20163;-70
2023/06/28 02:03:38;;;;;;;6.10;3.13;;;;;;;18.31;49.17;96437.97;5026537;28;20187;-70
2023/06/28 02:06:04;;;;;;;6.50;3.30;;;;;;;18.41;49.44;96441.63;5027111;28;20171;-70
2023/06/28 02:08:29;;;;;;;8.40;4.30;;;;;;;18.35;49.46;96439.44;5026941;28;20174;-70
2023/06/28 02:10:55;;;;;;;2.83;2.50;;;;;;;18.47;49.14;96442.97;5026836;28;20202;-70
2023/06/28 02:13:20;;;;;;;4.73;3.47;;;;;;;18.35;49.61;96435.91;5026533;28;20245;-69
2023/06/28 02:15:45;;;;;;;5.30;3.80;;;;;;;18.13;50.25;96434.00;5026455;28;20254;-70
2023/06/28 02:18:11;;;;;;;5.57;3.30;;;;;;;18.22;50.56;96438.63;5026257;28;20250;-69
2023/06/28 02:20:37;;;;;;;4.60;3.30;;;;;;;17.87;51.67;96431.44;5026681;28;20171;-69
2023/06/28 02:23:03;;;;;;;10.90;4.47;;;;;;;17.97;52.97;96445.72;5026622;28;20195;-70
2023/06/28 02:25:28;;;;;;;15.63;4.00;;;;;;;17.89;53.14;96442.81;5026489;28;20915;-69
2023/06/28 02:27:54;;;;;;;3.83;3.43;;;;;;;17.75;53.60;96442.91;5022261;28;20476;-70
2023/06/28 02:30:19;;;;;;;4.87;3.60;;;;;;;17.87;54.50;96443.88;5023840;28;20182;-70
2023/06/28 02:32:45;;;;;;;12.83;4.00;;;;;;;17.74;54.60;96446.50;5026603;28;20171;-70
2023/06/28 02:35:10;;;;;;;6.40;4.40;;;;;;;17.77;55.24;96446.31;5016594;28;20265;-70
2023/06/28 02:37:35;;;;;;;9.90;3.57;;;;;;;17.45;56.44;96448.59;5026374;28;20179;-70
2023/06/28 02:40:02;;;;;;;6.10;3.43;;;;;;;17.44;56.48;96452.22;5023070;28;20183;-69
2023/06/28 02:42:28;;;;;;;6.77;3.53;;;;;;;17.20;57.36;96458.28;5016020;28;20181;-70
2023/06/28 02:44:53;;;;;;;4.40;3.60;;;;;;;17.26;57.97;96454.34;5025860;28;20435;-70
2023/06/28 02:47:18;;;;;;;7.97;4.40;;;;;;;17.39;57.78;96449.06;5026444;28;20206;-71
2023/06/28 02:49:44;;;;;;;6.10;3.63;;;;;;;16.96;58.59;96457.31;5026852;28;20178;-70
2023/06/28 02:52:10;;;;;;;5.43;4.27;;;;;;;16.84;58.37;96453.69;5026363;28;20249;-70
2023/06/28 02:54:35;;;;;;;6.60;4.80;;;;;;;16.90;58.66;96454.13;5024599;28;20195;-70
2023/06/28 02:57:00;;;;;;;6.37;4.10;;;;;;;16.91;59.09;96453.19;5026044;28;20199;-70
2023/06/28 02:59:26;;;;;;;6.10;4.17;;;;;;;17.21;58.01;96448.53;5026104;28;20200;-69
2023/06/28 03:01:51;;;;;;;7.40;4.27;;;;;;;17.07;58.27;96445.03;5026144;28;20171;-70
2023/06/28 03:04:17;;;;;;;7.03;4.00;;;;;;;17.18;58.67;96446.09;5025691;28;20685;-69
2023/06/28 03:06:47;;;;;;;7.17;4.20;;;;;;;16.87;59.56;96456.16;5026056;28;20629;-70
2023/06/28 03:09:12;;;;;;;5.93;3.53;;;;;;;16.92;59.44;96451.41;5025911;28;20176;-68
2023/06/28 03:11:38;;;;;;;5.70;4.07;;;;;;;16.76;59.78;96445.41;5025755;28;20446;-70
2023/06/28 03:14:03;;;;;;;5.23;4.40;;;;;;;17.03;59.10;96458.59;5025528;28;20202;-69
2023/06/28 03:16:29;;;;;;;5.50;4.40;;;;;;;17.11;58.65;96454.47;5025687;28;20186;-71
2023/06/28 03:18:54;;;;;;;8.00;4.83;;;;;;;17.24;58.24;96449.16;5025601;28;20210;-71
2023/06/28 03:21:19;;;;;;;4.33;3.70;;;;;;;17.23;57.75;96447.47;5026127;28;20672;-70
2023/06/28 03:23:45;;;;;;;7.20;4.60;;;;;;;16.95;58.78;96447.69;5025530;28;20692;-70
2023/06/28 03:26:10;;;;;;;8.53;4.80;;;;;;;17.14;57.86;96446.28;5025884;28;20179;-70
2023/06/28 03:28:36;;;;;;;9.50;4.07;;;;;;;16.99;58.60;96442.06;5025990;28;20258;-69
2023/06/28 03:31:01;;;;;;;6.00;4.17;;;;;;;17.18;57.89;96443.44;5025831;28;20172;-69
2023/06/28 03:33:26;;;;;;;9.80;4.40;;;;;;;17.01;58.59;96445.47;5025197;28;20184;-70
2023/06/28 03:35:52;;;;;;;6.07;3.63;;;;;;;16.78;59.41;96436.41;5025616;28;20175;-70
2023/06/28 03:38:17;;;;;;;5.97;3.50;;;;;;;16.87;59.22;96445.56;5026102;28;20710;-69
2023/06/28 03:40:42;;;;;;;5.47;3.57;;;;;;;17.09;58.46;96436.97;5028061;28;20176;-70
2023/06/28 03:43:08;;;;;;;11.70;4.77;;;;;;;16.83;59.24;96446.72;5029713;28;20195;-69
2023/06/28 03:45:33;;;;;;;7.17;5.00;;;;;;;16.76;59.94;96448.91;5029113;28;20179;-70
2023/06/28 03:47:59;;;;;;;14.63;5.70;;;;;;;16.80;59.46;96446.94;5029220;28;20180;-70
2023/06/28 03:50:24;;;;;;;5.87;4.00;;;;;;;16.93;58.68;96439.81;5029504;28;20168;-70
2023/06/28 03:52:50;;;;;;;9.07;4.90;;;;;;;16.67;59.87;96439.75;5029559;28;20294;-70
2023/06/28 03:55:16;;;;;;;13.43;4.83;;;;;;;16.45;60.12;96444.81;5029324;28;20922;-70
2023/06/28 03:57:41;;;;;;;15.37;5.13;;;;;;;16.82;59.43;96445.00;5029554;28;20263;-69
2023/06/28 04:00:09;;;;;;;8.67;4.20;;;;;;;17.14;58.24;96440.16;5029442;28;20430;-70
2023/06/28 04:02:34;;;;;;;14.17;5.00;;;;;;;17.26;58.04;96441.94;5029755;28;20198;-70
2023/06/28 04:04:59;;;;;;;16.90;5.37;;;;;;;17.25;58.29;96442.06;5029437;28;21210;-70
2023/06/28 04:07:25;;;;;;;18.67;4.53;;;;;;;17.14;58.09;96445.44;5029840;28;20171;-70
2023/06/28 04:09:51;;;;;;;11.67;3.90;;;;;;;17.06;58.77;96437.19;5029897;28;20183;-70
2023/06/28 04:12:17;;;;;;;14.30;4.47;;;;;;;17.21;58.54;96436.09;5029891;28;20179;-69
2023/06/28 04:14:42;;;;;;;6.43;3.80;;;;;;;17.26;58.36;96439.28;5025921;28;21275;-69
2023/06/28 04:17:07;;;;;;;6.00;4.03;;;;;;;17.42;58.03;96439.06;5048104;28;20214;-70
2023/06/28 04:19:33;;;;;;;14.23;4.60;;;;;;;17.32;58.63;96438.03;5046947;28;20210;-70
2023/06/28 04:21:59;;;;;;;21.73;5.33;;;;;;;17.22;59.13;96442.25;5047763;28;20183;-69
2023/06/28 04:24:24;;;;;;;11.83;4.47;;;;;;;17.50;57.90;96444.69;5047076;28;20194;-70
2023/06/28 04:26:50;;;;;;;11.33;4.87;;;;;;;17.24;58.51;96440.34;5048660;28;20444;-71
2023/06/28 04:29:15;;;;;;;9.93;4.93;;;;;;;17.16;59.11;96445.34;5048490;28;20237;-70
2023/06/28 04:31:41;;;;;;;20.40;6.20;;;;;;;17.36;58.21;96450.09;5047764;28;20894;-70
2023/06/28 04:34:07;;;;;;;12.13;4.70;;;;;;;17.39;58.18;96443.75;5045809;28;20236;-69
2023/06/28 04:36:32;;;;;;;8.90;4.57;;;;;;;17.27;58.44;96442.81;5046151;28;20177;-70
2023/06/28 04:38:58;;;;;;;37.07;7.80;;;;;;;17.27;58.17;96445.47;5046296;28;20453;-70
2023/06/28 04:41:27;;;;;;;8.60;4.00;;;;;;;16.75;59.27;96454.28;5045938;28;20560;-69
2023/06/28 04:43:54;;;;;;;66.10;12.00;;;;;;;17.04;59.13;96442.59;5045802;28;20537;-70
2023/06/28 04:46:26;;;;;;;11.60;4.93;;;;;;;16.90;59.46;96451.47;5044921;28;20784;-70
2023/06/28 04:48:52;;;;;;;19.83;6.37;;;;;;;16.99;59.52;96455.31;5046225;28;20432;-69
2023/06/28 04:51:17;;;;;;;7.73;4.30;;;;;;;17.12;59.30;96452.66;5052196;28;20479;-70
2023/06/28 04:53:43;;;;;;;27.37;6.60;;;;;;;17.33;58.70;96451.16;5042144;28;20215;-69
2023/06/28 04:56:08;;;;;;;23.40;5.73;;;;;;;17.11;59.22;96443.84;5044005;28;20178;-69
2023/06/28 04:58:34;;;;;;;9.00;4.03;;;;;;;17.43;58.26;96432.78;5045834;28;20209;-69
2023/06/28 05:01:05;;;;;;;7.50;4.10;;;;;;;17.54;57.54;96434.69;5047487;28;20178;-69
2023/06/28 05:03:31;;;;;;;4.13;3.57;;;;;;;17.59;57.40;96434.38;5046602;28;20754;-68
2023/06/28 05:05:56;;;;;;;18.50;5.10;;;;;;;17.64;57.62;96433.06;5044329;28;20463;-68
2023/06/28 05:08:22;;;;;;;9.80;4.50;;;;;;;17.83;56.58;96435.28;5058502;28;20175;-71
2023/06/28 05:10:47;;;;;;;12.23;4.23;;;;;;;18.02;56.26;96436.59;5048679;28;20180;-70
2023/06/28 05:13:13;;;;;;;17.00;6.10;;;;;;;18.01;55.99;96429.59;5051875;28;20656;-70
2023/06/28 05:15:38;;;;;;;9.60;4.70;;;;;;;18.14;55.44;96431.25;5051329;28;20174;-69
2023/06/28 05:18:04;;;;;;;35.93;7.07;;;;;;;18.09;55.09;96432.53;5049018;28;20743;-71
2023/06/28 05:20:29;;;;;;;13.77;4.10;;;;;;;18.17;54.80;96425.69;5047413;28;20221;-70
2023/06/28 05:23:10;;;;;;;8.27;4.90;;;;;;;18.08;55.22;96428.19;5044531;28;20214;-70
2023/06/28 05:25:35;;;;;;;21.57;5.47;;;;;;;18.13;54.72;96423.38;5038507;28;20258;-70
2023/06/28 05:28:01;;;;;;;14.87;4.03;;;;;;;18.09;55.07;96425.41;5045408;28;20915;-70
2023/06/28 05:30:29;;;;;;;18.00;4.60;;;;;;;18.01;55.65;96429.59;5045405;28;20175;-70
2023/06/28 05:32:54;;;;;;;14.40;4.90;;;;;;;17.90;56.18;96428.56;5044866;28;20174;-69
2023/06/28 05:35:19;;;;;;;11.07;3.87;;;;;;;17.93;56.54;96433.66;5044180;28;20405;-71
2023/06/28 05:37:45;;;;;;;16.30;4.77;;;;;;;18.16;55.34;96428.47;5044958;28;20166;-70
2023/06/28 05:40:11;;;;;;;6.50;4.63;;;;;;;18.13;55.38;96424.22;5045302;28;20213;-71
2023/06/28 05:42:36;;;;;;;18.57;5.00;;;;;;;18.10;55.25;96426.28;5046117;28;20969;-69
2023/06/28 05:45:01;;;;;;;32.53;9.60;;;;;;;18.02;55.57;96425.97;5045225;28;20521;-69
2023/06/28 05:47:27;;;;;;;13.53;5.03;;;;;;;17.96;55.39;96428.13;5045759;28;20175;-70
2023/06/28 05:49:52;;;;;;;8.43;3.53;;;;;;;17.87;55.66;96426.13;5045639;28;20205;-69
2023/06/28 05:52:17;;;;;;;4.90;3.57;;;;;;;17.95;55.54;96425.56;5045624;28;20212;-71
2023/06/28 05:54:43;;;;;;;9.40;4.13;;;;;;;17.95;55.69;96434.41;5045572;28;20197;-69
2023/06/28 05:57:08;;;;;;;5.47;4.13;;;;;;;18.01;55.54;96422.47;5045445;28;20212;-69
2023/06/28 05:59:34;;;;;;;12.30;4.10;;;;;;;18.15;55.49;96422.31;5045156;28;20191;-71
2023/06/28 06:01:59;;;;;;;15.70;4.20;;;;;;;17.98;55.43;96436.81;5044981;28;20216;-71
2023/06/28 06:04:25;;;;;;;19.67;4.80;;;;;;;17.86;55.89;96434.19;5044331;28;20539;-70
2023/06/28 06:06:50;;;;;;;22.20;5.30;;;;;;;18.02;55.60;96431.28;5044983;28;20226;-71
2023/06/28 06:09:15;;;;;;;10.70;4.63;;;;;;;18.20;55.44;96430.78;5045083;28;20190;-70
2023/06/28 06:11:41;;;;;;;18.57;5.13;;;;;;;18.27;54.72;96430.34;5044715;28;20228;-71
2023/06/28 06:14:07;;;;;;;10.30;4.30;;;;;;;18.20;54.99;96429.94;5046289;28;20190;-69
2023/06/28 06:16:32;;;;;;;7.97;4.60;;;;;;;18.40;54.55;96431.09;5056928;28;20182;-70
2023/06/28 06:18:57;;;;;;;13.70;5.10;;;;;;;18.40;54.80;96431.97;5065007;28;20214;-70
2023/06/28 06:21:23;;;;;;;18.30;5.20;;;;;;;18.53;54.10;96441.66;5046328;28;20588;-70
2023/06/28 06:23:48;;;;;;;10.70;4.60;;;;;;;18.52;54.08;96437.28;5046827;28;20282;-68
2023/06/28 06:26:13;;;;;;;11.73;4.47;;;;;;;18.60;54.04;96427.78;5046720;28;20174;-69
2023/06/28 06:28:39;;;;;;;9.10;4.47;;;;;;;18.56;54.02;96428.97;5046532;28;20561;-70
2023/06/28 06:31:05;;;;;;;7.20;4.40;;;;;;;18.51;54.16;96431.13;5044502;28;20199;-70
2023/06/28 06:33:31;;;;;;;8.90;3.90;;;;;;;18.56;54.25;96428.13;5044323;28;20256;-68
2023/06/28 06:35:56;;;;;;;10.03;4.77;;;;;;;18.48;54.09;96430.53;5038392;28;20421;-70
2023/06/28 06:38:21;;;;;;;11.43;4.60;;;;;;;18.56;53.91;96431.63;5046640;28;20202;-70
2023/06/28 06:40:48;;;;;;;16.27;4.50;;;;;;;18.62;53.52;96425.03;5046825;28;20170;-70
2023/06/28 06:43:13;;;;;;;16.53;5.97;;;;;;;18.61;53.57;96423.31;5047063;28;20203;-71
2023/06/28 06:45:39;;;;;;;10.70;4.37;;;;;;;18.64;53.73;96425.75;5042920;28;20442;-70
2023/06/28 06:48:05;;;;;;;9.67;3.97;;;;;;;18.74;53.62;96426.75;5038725;28;20571;-70
2023/06/28 06:50:30;;;;;;;18.40;5.13;;;;;;;18.82;52.97;96429.69;5046977;28;20167;-69
2023/06/28 06:52:55;;;;;;;12.70;6.07;;;;;;;18.82;52.90;96434.16;5046492;28;20680;-70
2023/06/28 06:55:23;;;;;;;10.57;5.20;;;;;;;18.80;53.27;96431.66;5046088;28;20610;-69
2023/06/28 06:57:48;;;;;;;17.40;5.53;;;;;;;18.80;52.87;96439.63;5046779;28;20624;-70
2023/06/28 07:00:16;;;;;;;18.80;5.10;;;;;;;18.87;52.66;96439.13;5046492;28;20462;-70
2023/06/28 07:02:41;;;;;;;9.37;5.00;;;;;;;18.89;52.87;96437.22;5046557;28;20171;-70
2023/06/28 07:05:07;;;;;;;8.30;5.20;;;;;;;18.82;53.50;96442.13;5046586;28;20424;-70
2023/06/28 07:07:32;;;;;;;6.43;4.73;;;;;;;18.93;53.19;96439.50;5046677;28;20210;-70
2023/06/28 07:09:58;;;;;;;9.63;5.17;;;;;;;18.98;52.95;96444.47;5046542;28;20234;-70
2023/06/28 07:12:23;;;;;;;24.33;7.20;;;;;;;18.93;53.47;96442.19;5046767;28;20178;-71
2023/06/28 07:14:49;;;;;;;18.37;5.30;;;;;;;19.19;52.75;96439.31;5046202;28;20236;-69
2023/06/28 07:17:14;;;;;;;13.07;5.40;;;;;;;19.21;52.40;96448.03;5046639;28;20180;-70
2023/06/28 07:19:40;;;;;;;23.17;5.70;;;;;;;19.17;51.84;96443.91;5046290;28;20228;-70
2023/06/28 07:22:05;;;;;;;24.73;5.87;;;;;;;19.36;51.51;96444.16;5046221;28;20851;-70
2023/06/28 07:24:31;;;;;;;19.70;5.60;;;;;;;19.35;51.76;96449.63;5046005;28;20214;-69
2023/06/28 07:26:56;;;;;;;29.77;6.60;;;;;;;19.25;51.91;96455.66;5046727;28;20669;-71
2023/06/28 07:29:23;;;;;;;18.37;6.10;;;;;;;19.18;51.80;96451.78;5047147;28;20169;-70
2023/06/28 07:31:49;;;;;;;54.87;8.60;;;;;;;19.38;51.30;96454.69;5046962;28;20261;-71
2023/06/28 07:34:14;;;;;;;22.70;5.60;;;;;;;19.41;50.92;96449.97;5046562;28;20445;-70
2023/06/28 07:36:40;;;;;;;31.43;6.80;;;;;;;19.33;50.87;96455.06;5044868;28;20220;-69
2023/06/28 07:39:05;;;;;;;16.70;4.90;;;;;;;19.24;51.65;96461.09;5037780;28;20198;-68
2023/06/28 07:41:30;;;;;;;44.17;10.00;;;;;;;19.34;51.24;96464.72;5034133;28;20171;-68
2023/06/28 07:43:56;;;;;;;27.03;6.67;;;;;;;19.37;50.95;96453.84;5042266;28;20237;-71
2023/06/28 07:46:21;;;;;;;25.53;6.50;;;;;;;19.30;51.00;96462.41;5045478;28;20178;-69
2023/06/28 07:48:49;;;;;;;12.33;5.27;;;;;;;19.33;50.72;96463.03;5046019;28;20636;-71
2023/06/28 07:51:15;;;;;;;8.00;4.43;;;;;;;18.96;51.99;96465.03;5045890;28;20189;-70
2023/06/28 07:53:42;;;;;;;11.03;4.00;;;;;;;19.21;51.71;96458.69;5039271;28;20499;-70
2023/06/28 07:56:07;;;;;;;8.20;4.80;;;;;;;19.49;50.81;96461.81;5045341;28;20186;-68
2023/06/28 07:58:36;;;;;;;11.83;4.33;;;;;;;19.53;50.78;96463.28;5042083;28;20482;-70
2023/06/28 08:01:01;;;;;;;12.87;5.03;;;;;;;19.70;50.62;96464.63;5043366;28;20518;-71
2023/06/28 08:03:27;;;;;;;15.13;4.23;;;;;;;19.75;50.29;96462.44;5044449;28;20540;-69
2023/06/28 08:05:52;;;;;;;10.27;3.80;;;;;;;20.47;49.97;96462.75;5043056;28;20772;-71
2023/06/28 08:08:17;;;;;;;15.10;5.67;;;;;;;20.16;49.29;96458.28;5044483;28;20171;-69
2023/06/28 08:10:43;;;;;;;14.80;5.33;;;;;;;20.58;48.87;96461.09;5044924;28;20175;-72
2023/06/28 08:13:08;;;;;;;20.60;4.37;;;;;;;20.75;47.79;96459.66;5044552;28;20278;-68
2023/06/28 08:15:36;;;;;;;13.43;4.40;;;;;;;21.00;47.05;96451.28;5044480;28;20171;-70
2023/06/28 08:18:02;;;;;;;10.80;4.20;;;;;;;20.99;46.85;96454.91;5044311;28;20663;-69
2023/06/28 08:20:28;;;;;;;8.33;3.70;;;;;;;21.08;46.27;96451.47;5044225;28;20421;-70
2023/06/28 08:22:53;;;;;;;8.30;3.60;;;;;;;21.26;45.40;96442.84;5044573;28;20420;-69
2023/06/28 08:25:19;;;;;;;34.83;7.53;;;;;;;21.15;45.21;96443.78;5044792;28;20171;-68
2023/06/28 08:27:44;;;;;;;7.50;3.43;;;;;;;21.34;45.26;96445.72;5048834;28;20171;-68
2023/06/28 08:30:10;;;;;;;9.00;4.03;;;;;;;20.73;45.34;96452.63;5048952;28;20220;-70
2023/06/28 08:32:35;;;;;;;14.10;3.63;;;;;;;20.97;45.80;96456.03;5048496;28;20178;-70
2023/06/28 08:35:03;;;;;;;12.77;4.60;;;;;;;20.89;45.72;96454.00;5047503;28;20250;-70
2023/06/28 08:37:30;;;;;;;79.00;10.50;;;;;;;20.87;45.73;96448.81;5047416;28;20179;-70
2023/06/28 08:39:55;;;;;;;20.00;6.00;;;;;;;21.06;45.70;96455.25;5047853;28;20492;-69
2023/06/28 08:42:21;;;;;;;60.73;10.17;;;;;;;21.26;45.38;96450.84;5047655;28;21075;-68
2023/06/28 08:44:51;;;;;;;27.63;5.87;;;;;;;21.29;45.55;96453.28;5047219;28;20597;-68
2023/06/28 08:47:18;;;;;;;20.83;5.40;;;;;;;21.28;45.24;96459.59;5047495;28;20429;-70
2023/06/28 08:49:43;;;;;;;9.70;4.60;;;;;;;21.40;44.97;96455.03;5047385;28;20432;-68
2023/06/28 08:52:10;;;;;;;23.17;4.83;;;;;;;21.34;45.07;96456.41;5047821;28;20409;-68
2023/06/28 08:54:37;;;;;;;18.13;4.67;;;;;;;21.29;44.93;96453.28;5047443;28;20206;-68
2023/06/28 08:57:04;;;;;;;11.67;3.60;;;;;;;21.33;43.60;96454.69;5047292;28;20457;-69
2023/06/28 08:59:30;;;;;;;6.20;3.80;;;;;;;21.52;43.15;96446.81;5047455;28;20452;-68
2023/06/28 09:01:59;;;;;;;8.23;4.23;;;;;;;21.61;42.80;96442.47;5047537;28;20533;-68
2023/06/28 09:04:26;;;;;;;6.70;3.80;;;;;;;21.44;43.21;96448.47;5047037;28;20969;-70
2023/06/28 09:06:52;;;;;;;6.10;3.27;;;;;;;21.27;43.33;96442.72;5047308;28;20447;-70
2023/06/28 09:09:18;;;;;;;6.83;3.77;;;;;;;21.35;43.17;96444.72;5047714;28;20413;-70
2023/06/28 09:11:44;;;;;;;7.27;3.37;;;;;;;21.36;43.45;96441.09;5047342;28;20179;-70
2023/06/28 09:14:10;;;;;;;17.80;3.97;;;;;;;21.54;43.23;96439.53;5046980;28;20460;-68
2023/06/28 09:16:35;;;;;;;8.43;4.20;;;;;;;21.10;43.00;96444.19;5048117;28;20182;-70
2023/06/28 09:19:01;;;;;;;11.57;3.57;;;;;;;21.18;42.84;96432.84;5047347;28;20207;-70
2023/06/28 09:21:28;;;;;;;5.73;3.23;;;;;;;21.42;41.91;96421.06;5047565;28;20189;-69
2023/06/28 09:23:54;;;;;;;7.30;3.93;;;;;;;21.26;42.63;96434.84;5045513;28;20654;-69
2023/06/28 09:26:20;;;;;;;7.37;3.27;;;;;;;21.98;42.22;96439.25;5047368;28;20409;-69
2023/06/28 09:28:45;;;;;;;4.40;2.90;;;;;;;22.18;40.79;96434.75;5047404;28;20750;-70
2023/06/28 09:31:18;;;;;;;7.83;3.83;;;;;;;22.05;40.65;96435.03;5047170;28;20417;-70
2023/06/28 09:33:43;;;;;;;10.67;3.47;;;;;;;21.87;42.27;96425.97;5046909;28;20210;-68
2023/06/28 09:36:10;;;;;;;7.33;3.33;;;;;;;22.15;41.77;96422.53;5047076;28;20449;-69
2023/06/28 09:38:42;;;;;;;7.73;3.30;;;;;;;22.68;38.42;96412.44;5046737;28;20692;-69
2023/06/28 09:41:08;;;;;;;8.10;3.77;;;;;;;22.69;39.26;96412.31;5047681;28;20795;-70
2023/06/28 09:43:34;;;;;;;14.53;5.10;;;;;;;22.87;38.31;96408.91;5040083;28;20462;-69
2023/06/28 09:46:13;;;;;;;13.93;4.00;;;;;;;23.45;36.72;96406.94;5047209;28;20171;-70
2023/06/28 09:48:48;;;;;;;11.80;3.63;;;;;;;23.57;36.39;96409.44;5046674;28;20467;-71
2023/06/28 09:51:17;;;;;;;4.73;3.63;;;;;;;23.66;36.02;96416.59;5046954;28;20417;-70
2023/06/28 09:54:01;;;;;;;8.53;3.10;;;;;;;23.50;36.52;96417.22;5046335;28;20822;-68
2023/06/28 09:56:34;;;;;;;12.83;3.43;;;;;;;23.48;36.82;96405.81;5046930;28;20475;-71
2023/06/28 09:59:04;;;;;;;14.20;4.37;;;;;;;23.74;36.44;96406.03;5046442;28;20523;-70
2023/06/28 10:01:30;;;;;;;10.27;4.00;;;;;;;23.87;36.28;96409.16;5046953;28;20413;-69
2023/06/28 10:03:56;;;;;;;13.80;3.60;;;;;;;24.16;35.16;96404.63;5046537;28;20479;-70
2023/06/28 10:06:22;;;;;;;7.03;3.60;;;;;;;24.29;33.33;96408.63;5046984;28;20179;-68
2023/06/28 10:08:48;;;;;;;7.67;3.33;;;;;;;24.21;31.96;96413.94;5046904;28;20834;-69
2023/06/28 10:11:15;;;;;;;11.63;3.97;;;;;;;24.12;32.37;96403.25;5046752;28;20184;-70
2023/06/28 10:13:45;;;;;;;9.57;3.93;;;;;;;24.06;32.79;96410.91;5046563;28;20277;-69
2023/06/28 10:16:18;;;;;;;5.33;2.90;;;;;;;23.75;32.63;96405.00;5046720;28;20417;-69
2023/06/28 10:18:43;;;;;;;7.60;3.83;;;;;;;23.78;33.11;96406.56;5046542;28;20970;-70
2023/06/28 10:21:09;;;;;;;16.63;4.90;;;;;;;24.05;33.10;96406.53;5046473;28;20427;-70
2023/06/28 10:23:38;;;;;;;9.53;3.40;;;;;;;24.18;32.81;96397.28;5045961;28;20199;-70
2023/06/28 10:26:04;;;;;;;7.13;3.37;;;;;;;24.18;33.13;96395.44;5046051;28;20224;-70
2023/06/28 10:28:33;;;;;;;13.37;3.90;;;;;;;24.24;33.29;96397.53;5046294;28;20425;-71
2023/06/28 10:31:03;;;;;;;14.20;3.70;;;;;;;24.06;33.62;96397.50;5046149;28;20553;-70
2023/06/28 10:33:32;;;;;;;13.20;3.20;;;;;;;23.72;34.08;96397.25;5044509;28;20469;-70
2023/06/28 10:36:00;;;;;;;7.17;3.33;;;;;;;23.79;34.99;96398.38;5046013;28;20413;-69
2023/06/28 10:38:31;;;;;;;5.03;3.33;;;;;;;24.07;34.03;96398.31;5045801;28;20957;-69
2023/06/28 10:40:57;;;;;;;6.80;2.77;;;;;;;24.20;33.56;96387.25;5046134;28;20421;-70
2023/06/28 10:43:23;;;;;;;4.03;3.10;;;;;;;24.18;34.27;96398.13;5045819;28;20490;-70
2023/06/28 10:45:50;;;;;;;7.17;2.90;;;;;;;24.13;33.66;96392.38;5046223;28;20290;-69
2023/06/28 10:48:23;;;;;;;5.77;3.63;;;;;;;24.00;33.93;96397.25;5045571;28;20501;-70
2023/06/28 10:50:51;;;;;;;11.53;3.70;;;;;;;23.40;34.97;96393.16;5046091;28;20813;-70
2023/06/28 10:53:51;;;;;;;6.57;3.10;;;;;;;23.66;35.13;96392.47;5046143;28;20542;-69
2023/06/28 10:56:18;;;;;;;6.20;3.90;;;;;;;24.04;34.28;96386.06;5046526;28;20412;-69
2023/06/28 10:58:47;;;;;;;13.00;4.37;;;;;;;23.97;33.97;96387.66;5046162;28;20453;-69
2023/06/28 11:01:31;;;;;;;7.57;3.90;;;;;;;23.06;35.62;96394.69;5045863;28;20424;-69
2023/06/28 11:04:25;;;;;;;4.83;3.33;;;;;;;23.16;35.71;96390.97;5045854;28;20421;-70
2023/06/28 11:07:03;;;;;;;17.70;5.67;;;;;;;23.20;35.92;96388.88;5045752;28;20490;-69
2023/06/28 11:09:29;;;;;;;5.77;3.47;;;;;;;22.93;36.61;96385.09;5045935;28;21301;-70
2023/06/28 11:11:58;;;;;;;4.47;2.40;;;;;;;22.50;36.89;96383.75;5046142;28;20409;-69
2023/06/28 11:14:30;;;;;;;16.80;4.27;;;;;;;22.56;37.01;96372.50;5047488;28;20194;-68
2023/06/28 11:17:11;;;;;;;7.03;2.50;;;;;;;23.16;36.05;96374.09;5048524;28;20516;-70
2023/06/28 11:19:38;;;;;;;5.50;2.77;;;;;;;22.84;35.98;96380.59;5049491;28;21244;-70
2023/06/28 11:22:04;;;;;;;12.70;3.70;;;;;;;23.08;35.73;96374.81;5049650;28;20417;-70
2023/06/28 11:24:29;;;;;;;14.00;3.90;;;;;;;23.39;35.50;96379.94;5048858;28;21059;-71
2023/06/28 11:26:55;;;;;;;13.17;2.97;;;;;;;23.63;35.16;96382.06;5046483;28;20651;-68